createdAt,value
2016-12-17T00:00:06.025Z,1.8
2016-12-17T00:00:16.019Z,1.6
2016-12-17T00:00:26.011Z,1.8
2016-12-17T00:00:36.005Z,1.8
2016-12-17T00:00:45.996Z,1.8
2016-12-17T00:00:55.990Z,1.8
2016-12-17T00:01:05.981Z,1.8
2016-12-17T00:01:15.975Z,1.8
2016-12-17T00:01:25.968Z,1.7
2016-12-17T00:01:35.965Z,1.8
2016-12-17T00:01:45.954Z,1.8
2016-12-17T00:01:55.951Z,1.6
2016-12-17T00:02:05.945Z,1.7
2016-12-17T00:02:15.935Z,1.6
2016-12-17T00:02:25.931Z,1.8
2016-12-17T00:02:35.924Z,1.8
2016-12-17T00:02:45.917Z,1.7
2016-12-17T00:02:55.908Z,1.8
2016-12-17T00:03:05.900Z,1.8
2016-12-17T00:03:15.897Z,1.8
2016-12-17T00:03:25.889Z,1.8
2016-12-17T00:03:35.882Z,1.8
2016-12-17T00:03:45.877Z,1.8
2016-12-17T00:03:55.870Z,1.8
2016-12-17T00:04:05.861Z,1.8
2016-12-17T00:04:15.856Z,1.8
2016-12-17T00:04:25.850Z,1.8
2016-12-17T00:04:35.840Z,1.8
2016-12-17T00:04:45.834Z,1.9
2016-12-17T00:04:55.830Z,1.8
2016-12-17T00:05:05.822Z,1.9
2016-12-17T00:05:15.817Z,1.9
2016-12-17T00:05:25.808Z,1.9
2016-12-17T00:05:35.804Z,1.8
2016-12-17T00:05:45.796Z,1.9
2016-12-17T00:05:55.788Z,1.9
2016-12-17T00:06:05.780Z,1.9
2016-12-17T00:06:15.778Z,1.9
2016-12-17T00:06:25.767Z,1.9
2016-12-17T00:06:35.761Z,2
2016-12-17T00:06:45.754Z,1.9
2016-12-17T00:06:55.750Z,1.9
2016-12-17T00:07:05.739Z,1.9
2016-12-17T00:07:15.733Z,2
2016-12-17T00:07:25.728Z,2
2016-12-17T00:07:35.722Z,2.1
2016-12-17T00:07:45.714Z,2
2016-12-17T00:07:55.710Z,2
2016-12-17T00:08:05.703Z,2
2016-12-17T00:08:15.694Z,2
2016-12-17T00:08:25.686Z,2
2016-12-17T00:08:35.683Z,2
2016-12-17T00:08:45.674Z,2
2016-12-17T00:08:55.669Z,2
2016-12-17T00:09:05.659Z,2
2016-12-17T00:09:15.655Z,2
2016-12-17T00:09:25.647Z,2.1
2016-12-17T00:09:35.643Z,2
2016-12-17T00:09:45.635Z,2.2
2016-12-17T00:09:55.629Z,2.2
2016-12-17T00:10:05.625Z,2.1
2016-12-17T00:10:15.612Z,2.2
2016-12-17T00:10:25.605Z,2.1
2016-12-17T00:10:35.602Z,2.2
2016-12-17T00:10:45.593Z,2.1
2016-12-17T00:10:55.589Z,2.1
2016-12-17T00:11:05.582Z,2.2
2016-12-17T00:11:15.574Z,2.1
2016-12-17T00:11:25.567Z,2.2
2016-12-17T00:11:35.561Z,2.2
2016-12-17T00:11:45.553Z,2.1
2016-12-17T00:11:55.547Z,2.1
2016-12-17T00:12:05.541Z,2.2
2016-12-17T00:12:15.535Z,2.2
2016-12-17T00:12:25.526Z,2.1
2016-12-17T00:12:35.522Z,2.1
2016-12-17T00:12:45.512Z,2.2
2016-12-17T00:12:55.505Z,2.2
2016-12-17T00:13:05.501Z,2.1
2016-12-17T00:13:15.495Z,2.2
2016-12-17T00:13:25.484Z,2.1
2016-12-17T00:13:35.482Z,2.2
2016-12-17T00:13:45.472Z,2.2
2016-12-17T00:13:55.464Z,2.2
2016-12-17T00:14:05.461Z,2.2
2016-12-17T00:14:15.455Z,2.2
2016-12-17T00:14:25.444Z,2.2
2016-12-17T00:14:35.441Z,2.2
2016-12-17T00:14:45.434Z,2.2
2016-12-17T00:14:55.428Z,2.2
2016-12-17T00:15:05.418Z,2.2
2016-12-17T00:15:15.414Z,2.2
2016-12-17T00:15:25.404Z,2.2
2016-12-17T00:15:35.398Z,2.2
2016-12-17T00:15:45.395Z,2.2
2016-12-17T00:15:55.385Z,2.2
2016-12-17T00:16:05.380Z,2.2
2016-12-17T00:16:15.374Z,2.2
2016-12-17T00:16:25.365Z,2.2
2016-12-17T00:16:35.360Z,2.1
2016-12-17T00:16:45.351Z,2.2
2016-12-17T00:16:55.347Z,2.2
2016-12-17T00:17:05.337Z,2.2
2016-12-17T00:17:15.334Z,2.2
2016-12-17T00:17:25.327Z,2.2
2016-12-17T00:17:35.320Z,2.2
2016-12-17T00:17:45.313Z,2.2
2016-12-17T00:17:55.307Z,2.2
2016-12-17T00:18:05.298Z,2.3
2016-12-17T00:18:15.292Z,2.3
2016-12-17T00:18:25.283Z,2.2
2016-12-17T00:18:35.280Z,2.3
2016-12-17T00:18:45.271Z,2.3
2016-12-17T00:18:55.267Z,2.4
2016-12-17T00:19:05.259Z,2.3
2016-12-17T00:19:15.253Z,2.2
2016-12-17T00:19:25.247Z,2.3
2016-12-17T00:19:35.239Z,2.4
2016-12-17T00:19:45.233Z,2.3
2016-12-17T00:19:55.226Z,2.3
2016-12-17T00:20:05.216Z,2.2
2016-12-17T00:20:15.213Z,2.2
2016-12-17T00:20:25.206Z,2.3
2016-12-17T00:20:35.200Z,2.3
2016-12-17T00:20:45.190Z,2.3
2016-12-17T00:20:55.183Z,2.4
2016-12-17T00:21:05.177Z,2.4
2016-12-17T00:21:15.170Z,2.3
2016-12-17T00:21:25.162Z,2.3
2016-12-17T00:21:35.159Z,2.3
2016-12-17T00:21:45.149Z,2.2
2016-12-17T00:21:55.146Z,2.3
2016-12-17T00:22:05.137Z,2.3
2016-12-17T00:22:15.132Z,2.3
2016-12-17T00:22:25.125Z,2.2
2016-12-17T00:22:35.119Z,2.2
2016-12-17T00:22:45.110Z,2.3
2016-12-17T00:22:55.105Z,2.3
2016-12-17T00:23:05.096Z,2.3
2016-12-17T00:23:15.092Z,2.3
2016-12-17T00:23:25.086Z,2.3
2016-12-17T00:23:35.077Z,2.3
2016-12-17T00:23:45.069Z,2.3
2016-12-17T00:23:55.066Z,2.3
2016-12-17T00:24:05.058Z,2.3
2016-12-17T00:24:15.052Z,2.3
2016-12-17T00:24:25.045Z,2.3
2016-12-17T00:24:35.036Z,2.3
2016-12-17T00:24:45.032Z,2.3
2016-12-17T00:24:55.022Z,2.4
2016-12-17T00:25:05.019Z,2.3
2016-12-17T00:25:15.010Z,2.4
2016-12-17T00:25:25.006Z,2.4
2016-12-17T00:25:34.998Z,2.4
2016-12-17T00:25:44.987Z,2.3
2016-12-17T00:25:54.985Z,2.4
2016-12-17T00:26:04.977Z,2.3
2016-12-17T00:26:14.971Z,2.3
2016-12-17T00:26:24.962Z,2.4
2016-12-17T00:26:34.958Z,2.4
2016-12-17T00:26:44.948Z,2.4
2016-12-17T00:26:54.945Z,2.3
2016-12-17T00:27:04.935Z,2.3
2016-12-17T00:27:14.929Z,2.3
2016-12-17T00:27:24.925Z,2.4
2016-12-17T00:27:34.919Z,2.4
2016-12-17T00:27:44.909Z,2.5
2016-12-17T00:27:54.903Z,2.4
2016-12-17T00:28:04.895Z,2.4
2016-12-17T00:28:14.889Z,2.4
2016-12-17T00:28:24.880Z,2.4
2016-12-17T00:28:34.874Z,2.4
2016-12-17T00:28:44.871Z,2.4
2016-12-17T00:28:54.860Z,2.3
2016-12-17T00:29:04.858Z,2.4
2016-12-17T00:29:14.850Z,2.4
2016-12-17T00:29:24.843Z,2.3
2016-12-17T00:29:34.838Z,2.4
2016-12-17T00:29:44.827Z,2.4
2016-12-17T00:29:54.822Z,2.4
2016-12-17T00:30:04.814Z,2.4
2016-12-17T00:30:14.808Z,2.5
2016-12-17T00:30:24.822Z,2.5
2016-12-17T00:30:34.798Z,2.4
2016-12-17T00:30:44.793Z,2.5
2016-12-17T00:30:54.782Z,2.5
2016-12-17T00:31:04.777Z,2.5
2016-12-17T00:31:14.770Z,2.5
2016-12-17T00:31:24.762Z,2.5
2016-12-17T00:31:34.757Z,2.5
2016-12-17T00:31:44.747Z,2.5
2016-12-17T00:31:54.741Z,2.5
2016-12-17T00:32:04.735Z,2.4
2016-12-17T00:32:14.728Z,2.4
2016-12-17T00:32:24.721Z,2.4
2016-12-17T00:32:34.714Z,2.5
2016-12-17T00:32:44.708Z,2.5
2016-12-17T00:32:54.701Z,2.4
2016-12-17T00:33:04.697Z,2.4
2016-12-17T00:33:14.690Z,2.5
2016-12-17T00:33:24.683Z,2.5
2016-12-17T00:33:34.677Z,2.5
2016-12-17T00:33:44.667Z,2.5
2016-12-17T00:33:54.662Z,2.4
2016-12-17T00:34:04.657Z,2.5
2016-12-17T00:34:14.650Z,2.4
2016-12-17T00:34:24.641Z,2.5
2016-12-17T00:34:34.637Z,2.5
2016-12-17T00:34:44.628Z,2.5
2016-12-17T00:34:54.623Z,2.5
2016-12-17T00:35:04.613Z,2.5
2016-12-17T00:35:14.607Z,2.4
2016-12-17T00:35:24.601Z,2.4
2016-12-17T00:35:34.596Z,2.5
2016-12-17T00:35:44.589Z,2.4
2016-12-17T00:35:54.580Z,2.5
2016-12-17T00:36:04.575Z,2.5
2016-12-17T00:36:14.570Z,2.5
2016-12-17T00:36:24.560Z,2.4
2016-12-17T00:36:34.552Z,2.4
2016-12-17T00:36:44.547Z,2.5
2016-12-17T00:36:54.540Z,2.4
2016-12-17T00:37:04.538Z,2.4
2016-12-17T00:37:14.530Z,2.5
2016-12-17T00:37:24.520Z,2.5
2016-12-17T00:37:34.515Z,2.5
2016-12-17T00:37:44.509Z,2.5
2016-12-17T00:37:54.503Z,2.4
2016-12-17T00:38:04.496Z,2.5
2016-12-17T00:38:14.488Z,2.4
2016-12-17T00:38:24.482Z,2.4
2016-12-17T00:38:34.473Z,2.5
2016-12-17T00:38:44.467Z,2.5
2016-12-17T00:38:54.463Z,2.5
2016-12-17T00:39:04.456Z,2.5
2016-12-17T00:39:14.447Z,2.5
2016-12-17T00:39:24.441Z,2.5
2016-12-17T00:39:34.436Z,2.5
2016-12-17T00:39:44.434Z,2.5
2016-12-17T00:39:54.421Z,2.6
2016-12-17T00:40:04.413Z,2.5
2016-12-17T00:40:14.407Z,2.5
2016-12-17T00:40:24.402Z,2.4
2016-12-17T00:40:34.394Z,2.5
2016-12-17T00:40:44.389Z,2.5
2016-12-17T00:40:54.382Z,2.5
2016-12-17T00:41:04.374Z,2.5
2016-12-17T00:41:14.367Z,2.5
2016-12-17T00:41:24.362Z,2.6
2016-12-17T00:41:34.353Z,2.6
2016-12-17T00:41:44.345Z,2.6
2016-12-17T00:41:54.342Z,2.6
2016-12-17T00:42:04.333Z,2.6
2016-12-17T00:42:14.325Z,2.6
2016-12-17T00:42:24.321Z,2.5
2016-12-17T00:42:34.312Z,2.6
2016-12-17T00:42:44.307Z,2.6
2016-12-17T00:42:54.300Z,2.5
2016-12-17T00:43:04.295Z,2.5
2016-12-17T00:43:14.287Z,2.5
2016-12-17T00:43:24.282Z,2.5
2016-12-17T00:43:34.275Z,2.6
2016-12-17T00:43:44.266Z,2.6
2016-12-17T00:43:54.262Z,2.5
2016-12-17T00:44:04.256Z,2.6
2016-12-17T00:44:14.249Z,2.6
2016-12-17T00:44:24.242Z,2.6
2016-12-17T00:44:34.233Z,2.6
2016-12-17T00:44:44.226Z,2.6
2016-12-17T00:44:54.219Z,2.6
2016-12-17T00:45:04.213Z,2.6
2016-12-17T00:45:14.209Z,2.6
2016-12-17T00:45:24.202Z,2.6
2016-12-17T00:45:34.195Z,2.6
2016-12-17T00:45:44.192Z,2.6
2016-12-17T00:45:54.179Z,2.6
2016-12-17T00:46:04.175Z,2.6
2016-12-17T00:46:14.165Z,2.6
2016-12-17T00:46:24.159Z,2.7
2016-12-17T00:46:34.152Z,2.6
2016-12-17T00:46:44.148Z,2.7
2016-12-17T00:46:54.138Z,2.7
2016-12-17T00:47:04.134Z,2.7
2016-12-17T00:47:14.126Z,2.7
2016-12-17T00:47:24.122Z,2.7
2016-12-17T00:47:34.111Z,2.7
2016-12-17T00:47:44.107Z,2.7
2016-12-17T00:47:54.099Z,2.7
2016-12-17T00:48:04.093Z,2.7
2016-12-17T00:48:14.086Z,2.7
2016-12-17T00:48:24.079Z,2.7
2016-12-17T00:48:34.075Z,2.7
2016-12-17T00:48:44.067Z,2.7
2016-12-17T00:48:54.058Z,2.8
2016-12-17T00:49:04.055Z,2.7
2016-12-17T00:49:14.049Z,2.7
2016-12-17T00:49:24.042Z,2.8
2016-12-17T00:49:34.035Z,2.8
2016-12-17T00:49:44.026Z,2.8
2016-12-17T00:49:54.024Z,2.8
2016-12-17T00:50:04.013Z,2.8
2016-12-17T00:50:14.008Z,2.8
2016-12-17T00:50:23.999Z,2.8
2016-12-17T00:50:33.993Z,2.8
2016-12-17T00:50:43.988Z,2.8
2016-12-17T00:50:53.978Z,2.8
2016-12-17T00:51:03.972Z,2.8
2016-12-17T00:51:13.966Z,2.7
2016-12-17T00:51:23.961Z,2.7
2016-12-17T00:51:33.953Z,2.8
2016-12-17T00:51:43.947Z,2.8
2016-12-17T00:51:53.942Z,2.7
2016-12-17T00:52:03.934Z,2.7
2016-12-17T00:52:13.928Z,2.7
2016-12-17T00:52:23.921Z,2.7
2016-12-17T00:52:33.915Z,2.6
2016-12-17T00:52:43.905Z,2.7
2016-12-17T00:52:53.897Z,2.7
2016-12-17T00:53:03.894Z,2.7
2016-12-17T00:53:13.885Z,2.7
2016-12-17T00:53:23.882Z,2.7
2016-12-17T00:53:33.875Z,2.7
2016-12-17T00:53:43.866Z,2.7
2016-12-17T00:53:53.858Z,2.8
2016-12-17T00:54:03.852Z,2.7
2016-12-17T00:54:13.844Z,2.7
2016-12-17T00:54:23.841Z,2.7
2016-12-17T00:54:33.835Z,2.7
2016-12-17T00:54:43.845Z,2.8
2016-12-17T00:54:53.817Z,2.8
2016-12-17T00:55:03.814Z,2.8
2016-12-17T00:55:13.809Z,2.8
2016-12-17T00:55:23.799Z,2.8
2016-12-17T00:55:33.795Z,2.8
2016-12-17T00:55:43.788Z,2.8
2016-12-17T00:55:53.781Z,2.8
2016-12-17T00:56:03.774Z,2.8
2016-12-17T00:56:13.766Z,2.8
2016-12-17T00:56:23.761Z,2.7
2016-12-17T00:56:33.754Z,2.7
2016-12-17T00:56:43.746Z,2.8
2016-12-17T00:56:53.740Z,2.8
2016-12-17T00:57:03.734Z,2.8
2016-12-17T00:57:13.728Z,2.8
2016-12-17T00:57:23.721Z,2.8
2016-12-17T00:57:33.716Z,2.7
2016-12-17T00:57:43.705Z,2.8
2016-12-17T00:57:53.698Z,2.8
2016-12-17T00:58:03.693Z,2.7
2016-12-17T00:58:13.684Z,2.8
2016-12-17T00:58:23.678Z,2.8
2016-12-17T00:58:33.674Z,2.8
2016-12-17T00:58:43.664Z,2.9
2016-12-17T00:58:53.661Z,2.8
2016-12-17T00:59:03.650Z,2.8
2016-12-17T00:59:13.647Z,2.8
2016-12-17T00:59:23.641Z,2.9
2016-12-17T00:59:33.633Z,2.7
2016-12-17T00:59:43.624Z,2.8
2016-12-17T00:59:53.621Z,2.7
2016-12-17T01:00:03.614Z,2.7
2016-12-17T01:00:13.607Z,2.7
2016-12-17T01:00:23.597Z,2.8
2016-12-17T01:00:33.594Z,2.8
2016-12-17T01:00:43.588Z,2.8
2016-12-17T01:00:53.580Z,2.7
2016-12-17T01:01:03.574Z,2.8
2016-12-17T01:01:13.564Z,2.8
2016-12-17T01:01:23.560Z,2.8
2016-12-17T01:01:33.551Z,2.8
2016-12-17T01:01:43.547Z,2.8
2016-12-17T01:01:53.540Z,2.7
2016-12-17T01:02:03.532Z,2.7
2016-12-17T01:02:13.527Z,2.7
2016-12-17T01:02:23.517Z,2.9
2016-12-17T01:02:33.514Z,2.9
2016-12-17T01:02:43.509Z,2.9
2016-12-17T01:02:53.501Z,2.9
2016-12-17T01:03:03.493Z,2.8
2016-12-17T01:03:13.486Z,2.9
2016-12-17T01:03:23.480Z,2.8
2016-12-17T01:03:33.469Z,2.9
2016-12-17T01:03:43.465Z,2.8
2016-12-17T01:03:53.461Z,2.9
2016-12-17T01:04:03.454Z,2.9
2016-12-17T01:04:13.444Z,2.8
2016-12-17T01:04:23.437Z,2.9
2016-12-17T01:04:33.432Z,2.9
2016-12-17T01:04:43.425Z,2.9
2016-12-17T01:04:53.417Z,2.9
2016-12-17T01:05:03.414Z,2.9
2016-12-17T01:05:13.404Z,2.9
2016-12-17T01:05:23.400Z,2.9
2016-12-17T01:05:33.394Z,2.9
2016-12-17T01:05:43.383Z,2.9
2016-12-17T01:05:53.381Z,2.9
2016-12-17T01:06:03.374Z,2.9
2016-12-17T01:06:13.366Z,2.9
2016-12-17T01:06:23.357Z,2.9
2016-12-17T01:06:33.352Z,2.9
2016-12-17T01:06:43.343Z,2.8
2016-12-17T01:06:53.340Z,2.9
2016-12-17T01:07:03.331Z,2.8
2016-12-17T01:07:13.324Z,2.8
2016-12-17T01:07:23.317Z,2.8
2016-12-17T01:07:33.310Z,2.8
2016-12-17T01:07:43.305Z,2.8
2016-12-17T01:07:53.300Z,2.8
2016-12-17T01:08:03.291Z,2.8
2016-12-17T01:08:13.287Z,2.8
2016-12-17T01:08:23.277Z,2.7
2016-12-17T01:08:33.270Z,2.9
2016-12-17T01:08:43.267Z,2.9
2016-12-17T01:08:53.257Z,2.9
2016-12-17T01:09:03.253Z,2.9
2016-12-17T01:09:13.247Z,2.9
2016-12-17T01:09:23.237Z,2.8
2016-12-17T01:09:33.232Z,2.8
2016-12-17T01:09:43.223Z,2.9
2016-12-17T01:09:53.217Z,2.9
2016-12-17T01:10:03.214Z,2.9
2016-12-17T01:10:13.203Z,2.9
2016-12-17T01:10:23.197Z,2.9
2016-12-17T01:10:33.191Z,3
2016-12-17T01:10:43.183Z,3
2016-12-17T01:10:53.180Z,2.9
2016-12-17T01:11:03.170Z,2.9
2016-12-17T01:11:13.164Z,2.9
2016-12-17T01:11:23.157Z,3
2016-12-17T01:11:33.153Z,3
2016-12-17T01:11:43.146Z,2.9
2016-12-17T01:11:53.139Z,2.8
2016-12-17T01:12:03.134Z,2.8
2016-12-17T01:12:13.127Z,2.8
2016-12-17T01:12:23.116Z,2.9
2016-12-17T01:12:33.110Z,2.9
2016-12-17T01:12:43.106Z,2.8
2016-12-17T01:12:53.098Z,2.8
2016-12-17T01:13:03.104Z,2.9
2016-12-17T01:13:13.087Z,2.9
2016-12-17T01:13:23.080Z,2.8
2016-12-17T01:13:33.073Z,2.9
2016-12-17T01:13:43.062Z,2.8
2016-12-17T01:13:53.060Z,2.9
2016-12-17T01:14:03.053Z,2.9
2016-12-17T01:14:13.045Z,2.9
2016-12-17T01:14:23.037Z,2.9
2016-12-17T01:14:33.033Z,2.9
2016-12-17T01:14:43.025Z,2.8
2016-12-17T01:14:53.016Z,2.9
2016-12-17T01:15:03.009Z,2.8
2016-12-17T01:15:13.006Z,2.9
2016-12-17T01:15:23.001Z,2.8
2016-12-17T01:15:32.990Z,2.8
2016-12-17T01:15:42.986Z,2.9
2016-12-17T01:15:52.980Z,2.9
2016-12-17T01:16:02.970Z,2.9
2016-12-17T01:16:12.966Z,2.9
2016-12-17T01:16:22.957Z,2.9
2016-12-17T01:16:32.950Z,2.9
2016-12-17T01:16:42.954Z,2.8
2016-12-17T01:16:52.939Z,2.9
2016-12-17T01:17:02.932Z,2.9
2016-12-17T01:17:12.926Z,2.9
2016-12-17T01:17:22.919Z,2.9
2016-12-17T01:17:32.910Z,2.9
2016-12-17T01:17:42.903Z,2.9
2016-12-17T01:17:52.896Z,2.9
2016-12-17T01:18:02.890Z,2.9
2016-12-17T01:18:12.883Z,2.9
2016-12-17T01:18:22.877Z,2.9
2016-12-17T01:18:32.873Z,2.9
2016-12-17T01:18:42.865Z,2.9
2016-12-17T01:18:52.858Z,2.9
2016-12-17T01:19:02.852Z,2.8
2016-12-17T01:19:12.842Z,2.9
2016-12-17T01:19:22.839Z,2.9
2016-12-17T01:19:32.833Z,2.9
2016-12-17T01:19:42.825Z,2.9
2016-12-17T01:19:52.816Z,2.9
2016-12-17T01:20:02.809Z,2.8
2016-12-17T01:20:12.805Z,2.9
2016-12-17T01:20:22.798Z,2.9
2016-12-17T01:20:32.789Z,2.9
2016-12-17T01:20:42.786Z,2.9
2016-12-17T01:20:52.778Z,2.8
2016-12-17T01:21:02.773Z,2.9
2016-12-17T01:21:12.766Z,2.9
2016-12-17T01:21:22.759Z,2.9
2016-12-17T01:21:32.752Z,2.9
2016-12-17T01:21:42.745Z,2.9
2016-12-17T01:21:52.736Z,2.8
2016-12-17T01:22:02.732Z,2.8
2016-12-17T01:22:12.721Z,2.9
2016-12-17T01:22:22.715Z,2.9
2016-12-17T01:22:32.712Z,2.9
2016-12-17T01:22:42.705Z,2.8
2016-12-17T01:22:52.696Z,2.9
2016-12-17T01:23:02.688Z,2.9
2016-12-17T01:23:12.685Z,2.9
2016-12-17T01:23:22.677Z,2.9
2016-12-17T01:23:32.671Z,2.8
2016-12-17T01:23:42.663Z,2.9
2016-12-17T01:23:52.657Z,2.8
2016-12-17T01:24:02.652Z,2.9
2016-12-17T01:24:12.643Z,2.9
2016-12-17T01:24:22.638Z,2.9
2016-12-17T01:24:32.630Z,2.8
2016-12-17T01:24:42.624Z,2.9
2016-12-17T01:24:52.616Z,2.9
2016-12-17T01:25:02.610Z,2.9
2016-12-17T01:25:12.603Z,2.8
2016-12-17T01:25:22.596Z,2.9
2016-12-17T01:25:32.589Z,2.9
2016-12-17T01:25:42.582Z,2.9
2016-12-17T01:25:52.575Z,3
2016-12-17T01:26:02.570Z,2.8
2016-12-17T01:26:12.561Z,2.9
2016-12-17T01:26:22.555Z,2.9
2016-12-17T01:26:32.555Z,2.8
2016-12-17T01:26:42.542Z,2.9
2016-12-17T01:26:52.536Z,2.8
2016-12-17T01:27:02.529Z,2.9
2016-12-17T01:27:12.524Z,2.9
2016-12-17T01:27:22.519Z,2.8
2016-12-17T01:27:32.510Z,2.8
2016-12-17T01:27:42.505Z,2.8
2016-12-17T01:27:52.496Z,2.8
2016-12-17T01:28:02.489Z,2.9
2016-12-17T01:28:12.485Z,2.8
2016-12-17T01:28:22.478Z,2.9
2016-12-17T01:28:32.468Z,2.8
2016-12-17T01:28:42.463Z,2.9
2016-12-17T01:28:52.458Z,2.8
2016-12-17T01:29:02.450Z,3
2016-12-17T01:29:12.442Z,2.9
2016-12-17T01:29:22.435Z,2.9
2016-12-17T01:29:32.432Z,2.9
2016-12-17T01:29:42.423Z,2.9
2016-12-17T01:29:52.418Z,2.9
2016-12-17T01:30:02.411Z,3
2016-12-17T01:30:12.404Z,2.9
2016-12-17T01:30:22.395Z,3
2016-12-17T01:30:32.388Z,3
2016-12-17T01:30:42.384Z,3
2016-12-17T01:30:52.378Z,2.9
2016-12-17T01:31:02.369Z,2.9
2016-12-17T01:31:12.362Z,3
2016-12-17T01:31:22.359Z,3
2016-12-17T01:31:32.348Z,2.9
2016-12-17T01:31:42.341Z,2.9
2016-12-17T01:31:52.337Z,2.9
2016-12-17T01:32:02.329Z,2.9
2016-12-17T01:32:12.322Z,3
2016-12-17T01:32:22.314Z,3
2016-12-17T01:32:32.309Z,3
2016-12-17T01:32:42.305Z,3
2016-12-17T01:32:52.297Z,3
2016-12-17T01:33:02.289Z,3
2016-12-17T01:33:12.282Z,3
2016-12-17T01:33:22.276Z,3
2016-12-17T01:33:32.269Z,3
2016-12-17T01:33:42.264Z,3
2016-12-17T01:33:52.254Z,3
2016-12-17T01:34:02.248Z,3
2016-12-17T01:34:12.242Z,3.1
2016-12-17T01:34:22.238Z,3
2016-12-17T01:34:32.232Z,3.1
2016-12-17T01:34:42.221Z,3.1
2016-12-17T01:34:52.215Z,3
2016-12-17T01:35:02.210Z,3
2016-12-17T01:35:12.202Z,3
2016-12-17T01:35:22.195Z,3
2016-12-17T01:35:32.187Z,3
2016-12-17T01:35:42.185Z,3
2016-12-17T01:35:52.176Z,3
2016-12-17T01:36:02.169Z,3
2016-12-17T01:36:12.161Z,2.9
2016-12-17T01:36:22.155Z,3
2016-12-17T01:36:32.151Z,3
2016-12-17T01:36:42.145Z,3
2016-12-17T01:36:52.138Z,3
2016-12-17T01:37:02.130Z,2.8
2016-12-17T01:37:12.123Z,3
2016-12-17T01:37:22.117Z,2.9
2016-12-17T01:37:32.109Z,3
2016-12-17T01:37:42.104Z,2.8
2016-12-17T01:37:52.094Z,3.1
2016-12-17T01:38:02.092Z,2.9
2016-12-17T01:38:12.084Z,3
2016-12-17T01:38:22.078Z,3
2016-12-17T01:38:32.069Z,3
2016-12-17T01:38:42.064Z,3
2016-12-17T01:38:52.055Z,3
2016-12-17T01:39:02.049Z,3.1
2016-12-17T01:39:12.042Z,3.1
2016-12-17T01:39:22.038Z,3.1
2016-12-17T01:39:32.031Z,3.2
2016-12-17T01:39:42.024Z,3.1
2016-12-17T01:39:52.017Z,3.1
2016-12-17T01:40:02.008Z,3
2016-12-17T01:40:12.001Z,3.1
2016-12-17T01:40:21.997Z,3.1
2016-12-17T01:40:31.991Z,3.1
2016-12-17T01:40:41.981Z,3.1
2016-12-17T01:40:51.977Z,3.2
2016-12-17T01:41:01.973Z,3.1
2016-12-17T01:41:11.963Z,3.1
2016-12-17T01:41:21.955Z,3.1
2016-12-17T01:41:31.949Z,3.1
2016-12-17T01:41:41.942Z,3
2016-12-17T01:41:51.934Z,2.9
2016-12-17T01:42:01.928Z,3.1
2016-12-17T01:42:11.922Z,3
2016-12-17T01:42:21.915Z,3
2016-12-17T01:42:31.911Z,3.1
2016-12-17T01:42:41.902Z,3
2016-12-17T01:42:51.898Z,3
2016-12-17T01:43:01.890Z,3.1
2016-12-17T01:43:11.884Z,3
2016-12-17T01:43:21.876Z,3
2016-12-17T01:43:31.868Z,3.1
2016-12-17T01:43:41.862Z,3
2016-12-17T01:43:51.858Z,3.1
2016-12-17T01:44:01.852Z,3.1
2016-12-17T01:44:11.841Z,3.1
2016-12-17T01:44:21.834Z,3.1
2016-12-17T01:44:31.830Z,3.1
2016-12-17T01:44:41.824Z,3.1
2016-12-17T01:44:51.817Z,3.1
2016-12-17T01:45:01.807Z,3.1
2016-12-17T01:45:11.803Z,3.1
2016-12-17T01:45:21.795Z,3.1
2016-12-17T01:45:31.788Z,3.1
2016-12-17T01:45:41.783Z,3.1
2016-12-17T01:45:51.775Z,3.1
2016-12-17T01:46:01.771Z,3.1
2016-12-17T01:46:11.760Z,3.1
2016-12-17T01:46:21.758Z,3.1
2016-12-17T01:46:31.750Z,3.1
2016-12-17T01:46:41.744Z,3.1
2016-12-17T01:46:51.735Z,3.1
2016-12-17T01:47:01.731Z,3.2
2016-12-17T01:47:11.722Z,3.1
2016-12-17T01:47:21.717Z,3.1
2016-12-17T01:47:31.709Z,3.3
2016-12-17T01:47:41.701Z,3.1
2016-12-17T01:47:51.700Z,3.1
2016-12-17T01:48:01.688Z,3.2
2016-12-17T01:48:11.684Z,3.2
2016-12-17T01:48:21.673Z,3.2
2016-12-17T01:48:31.668Z,3.2
2016-12-17T01:48:41.664Z,3.2
2016-12-17T01:48:51.655Z,3.2
2016-12-17T01:49:01.651Z,3.2
2016-12-17T01:49:11.642Z,3.3
2016-12-17T01:49:21.634Z,3.2
2016-12-17T01:49:31.627Z,3.2
2016-12-17T01:49:41.624Z,3.3
2016-12-17T01:49:51.617Z,3.2
2016-12-17T01:50:01.611Z,3.2
2016-12-17T01:50:11.600Z,3.2
2016-12-17T01:50:21.597Z,3.2
2016-12-17T01:50:31.588Z,3.3
2016-12-17T01:50:41.584Z,3.2
2016-12-17T01:50:51.578Z,3.2
2016-12-17T01:51:01.568Z,3.1
2016-12-17T01:51:11.564Z,3.1
2016-12-17T01:51:21.555Z,3.2
2016-12-17T01:51:31.547Z,3.1
2016-12-17T01:51:41.540Z,3.1
2016-12-17T01:51:51.536Z,3.1
2016-12-17T01:52:01.530Z,3.1
2016-12-17T01:52:11.521Z,3.2
2016-12-17T01:52:21.516Z,3.2
2016-12-17T01:52:31.507Z,3.1
2016-12-17T01:52:41.505Z,3.1
2016-12-17T01:52:51.493Z,3
2016-12-17T01:53:01.489Z,3.1
2016-12-17T01:53:11.484Z,3.2
2016-12-17T01:53:21.477Z,3.1
2016-12-17T01:53:31.468Z,3.1
2016-12-17T01:53:41.463Z,3.1
2016-12-17T01:53:51.455Z,3.1
2016-12-17T01:54:01.451Z,3
2016-12-17T01:54:11.444Z,3.1
2016-12-17T01:54:21.437Z,3.1
2016-12-17T01:54:31.429Z,3.1
2016-12-17T01:54:41.420Z,3.2
2016-12-17T01:54:51.415Z,3.1
2016-12-17T01:55:01.408Z,3.1
2016-12-17T01:55:11.402Z,3.1
2016-12-17T01:55:21.395Z,3.1
2016-12-17T01:55:31.390Z,3.2
2016-12-17T01:55:41.384Z,3.1
2016-12-17T01:55:51.377Z,3.2
2016-12-17T01:56:01.369Z,3.2
2016-12-17T01:56:11.362Z,3.2
2016-12-17T01:56:21.355Z,3.1
2016-12-17T01:56:31.349Z,3.1
2016-12-17T01:56:41.342Z,3.2
2016-12-17T01:56:51.337Z,3.2
2016-12-17T01:57:01.333Z,3.2
2016-12-17T01:57:11.321Z,3.2
2016-12-17T01:57:21.317Z,3.2
2016-12-17T01:57:31.309Z,3.1
2016-12-17T01:57:41.304Z,3.1
2016-12-17T01:57:51.294Z,3.2
2016-12-17T01:58:01.288Z,3.1
2016-12-17T01:58:11.281Z,3.2
2016-12-17T01:58:21.275Z,3.1
2016-12-17T01:58:31.271Z,3.1
2016-12-17T01:58:41.262Z,3.2
2016-12-17T01:58:51.257Z,3.1
2016-12-17T01:59:01.247Z,3.1
2016-12-17T01:59:11.242Z,3.1
2016-12-17T01:59:21.236Z,3.3
2016-12-17T01:59:31.229Z,3.1
2016-12-17T01:59:41.222Z,3
2016-12-17T01:59:51.218Z,3.1
2016-12-17T02:00:01.210Z,3.2
2016-12-17T02:00:11.205Z,3.1
2016-12-17T02:00:21.194Z,3.1
2016-12-17T02:00:31.191Z,3.2
2016-12-17T02:00:41.185Z,3
2016-12-17T02:00:51.178Z,3.1
2016-12-17T02:01:01.171Z,3.1
2016-12-17T02:01:11.162Z,3.2
2016-12-17T02:01:21.157Z,3.1
2016-12-17T02:01:31.150Z,3.3
2016-12-17T02:01:41.143Z,3.2
2016-12-17T02:01:51.137Z,3.2
2016-12-17T02:02:01.132Z,3.2
2016-12-17T02:02:11.124Z,3.2
2016-12-17T02:02:21.118Z,3.3
2016-12-17T02:02:31.112Z,3.2
2016-12-17T02:02:41.102Z,3.3
2016-12-17T02:02:51.099Z,3.2
2016-12-17T02:03:01.091Z,3.2
2016-12-17T02:03:11.081Z,3.1
2016-12-17T02:03:21.077Z,3.1
2016-12-17T02:03:31.068Z,3.2
2016-12-17T02:03:41.061Z,3.2
2016-12-17T02:03:51.058Z,3.2
2016-12-17T02:04:01.049Z,3.1
2016-12-17T02:04:11.042Z,3.3
2016-12-17T02:04:21.034Z,3.2
2016-12-17T02:04:31.029Z,3.3
2016-12-17T02:04:41.023Z,3.3
2016-12-17T02:04:51.016Z,3.3
2016-12-17T02:05:01.012Z,3.2
2016-12-17T02:05:11.005Z,3.2
2016-12-17T02:05:20.999Z,3.2
2016-12-17T02:05:30.988Z,3.2
2016-12-17T02:05:40.982Z,3.3
2016-12-17T02:05:50.975Z,3.3
2016-12-17T02:06:00.972Z,3.3
2016-12-17T02:06:10.962Z,3.2
2016-12-17T02:06:20.958Z,3.2
2016-12-17T02:06:30.952Z,3.2
2016-12-17T02:06:40.945Z,3.2
2016-12-17T02:06:50.938Z,3.3
2016-12-17T02:07:00.929Z,3.1
2016-12-17T02:07:10.924Z,3.1
2016-12-17T02:07:20.919Z,3.1
2016-12-17T02:07:30.909Z,3.2
2016-12-17T02:07:40.902Z,3.1
2016-12-17T02:07:50.899Z,3.2
2016-12-17T02:08:00.889Z,3.2
2016-12-17T02:08:10.883Z,3.1
2016-12-17T02:08:20.877Z,3.1
2016-12-17T02:08:30.869Z,3.2
2016-12-17T02:08:40.865Z,3.2
2016-12-17T02:08:50.858Z,3.2
2016-12-17T02:09:00.852Z,3.2
2016-12-17T02:09:10.846Z,3.2
2016-12-17T02:09:20.838Z,3.2
2016-12-17T02:09:30.829Z,3.3
2016-12-17T02:09:40.822Z,3.3
2016-12-17T02:09:50.816Z,3.2
2016-12-17T02:10:00.812Z,3.2
2016-12-17T02:10:10.801Z,3.2
2016-12-17T02:10:20.796Z,3.3
2016-12-17T02:10:30.789Z,3.2
2016-12-17T02:10:40.785Z,3.3
2016-12-17T02:10:50.778Z,3.3
2016-12-17T02:11:00.769Z,3.3
2016-12-17T02:11:10.763Z,3.3
2016-12-17T02:11:20.759Z,3.3
2016-12-17T02:11:30.751Z,3.3
2016-12-17T02:11:40.743Z,3.3
2016-12-17T02:11:50.736Z,3.3
2016-12-17T02:12:00.732Z,3.3
2016-12-17T02:12:10.722Z,3.3
2016-12-17T02:12:20.718Z,3.3
2016-12-17T02:12:30.710Z,3.3
2016-12-17T02:12:40.706Z,3.3
2016-12-17T02:12:50.695Z,3.3
2016-12-17T02:13:00.689Z,3.3
2016-12-17T02:13:10.685Z,3.3
2016-12-17T02:13:20.679Z,3.3
2016-12-17T02:13:30.672Z,3.3
2016-12-17T02:13:40.665Z,3.3
2016-12-17T02:13:50.659Z,3.3
2016-12-17T02:14:00.649Z,3.3
2016-12-17T02:14:10.644Z,3.3
2016-12-17T02:14:20.639Z,3.3
2016-12-17T02:14:30.633Z,3.3
2016-12-17T02:14:40.626Z,3.5
2016-12-17T02:14:50.616Z,3.4
2016-12-17T02:15:00.608Z,3.4
2016-12-17T02:15:10.602Z,3.4
2016-12-17T02:15:20.597Z,3.4
2016-12-17T02:15:30.592Z,3.3
2016-12-17T02:15:40.586Z,3.3
2016-12-17T02:15:50.577Z,3.3
2016-12-17T02:16:00.569Z,3.4
2016-12-17T02:16:10.565Z,3.4
2016-12-17T02:16:20.556Z,3.2
2016-12-17T02:16:30.553Z,3.2
2016-12-17T02:16:40.544Z,3.3
2016-12-17T02:16:50.539Z,3.3
2016-12-17T02:17:00.533Z,3.3
2016-12-17T02:17:10.523Z,3.3
2016-12-17T02:17:20.519Z,3.2
2016-12-17T02:17:30.511Z,3.3
2016-12-17T02:17:40.505Z,3.3
2016-12-17T02:17:50.497Z,3.3
2016-12-17T02:18:00.492Z,3.2
2016-12-17T02:18:10.483Z,3.3
2016-12-17T02:18:20.480Z,3.3